Time;durP1;ratioP1;P1;durP2;ratioP2;P2;SDS_P1;SDS_P2;PMS_P1;PMS_P2;Temp;Humidity;BMP_temperature;BMP_pressure;BME280_temperature;BME280_humidity;BME280_pressure;Samples;Min_cycle;Max_cycle;Signal;HPM_P1;HPM_P2
2021/05/08 00:00:18;;;;;;;5.00;3.38;;;;;;;3.57;100.00;97976.81;5027622;28;20130;-77
2021/05/08 00:02:45;;;;;;;8.23;3.28;;;;;;;3.54;100.00;97990.72;5029343;28;20049;-77
2021/05/08 00:05:12;;;;;;;5.03;3.20;;;;;;;3.52;100.00;97974.13;5029164;28;20041;-77
2021/05/08 00:07:38;;;;;;;9.00;3.40;;;;;;;3.61;100.00;97984.06;5012154;28;20060;-77
2021/05/08 00:10:11;;;;;;;7.82;2.90;;;;;;;3.79;100.00;97988.94;5046835;28;20049;-77
2021/05/08 00:12:37;;;;;;;5.53;3.03;;;;;;;3.95;100.00;97971.06;5047433;28;20052;-76
2021/05/08 00:15:03;;;;;;;5.55;3.00;;;;;;;4.03;100.00;97983.13;5049452;28;20049;-77
2021/05/08 00:17:29;;;;;;;6.05;3.15;;;;;;;4.17;100.00;97977.03;5048412;28;20064;-76
2021/05/08 00:19:56;;;;;;;6.80;3.67;;;;;;;4.29;100.00;97972.22;5045778;28;20056;-76
2021/05/08 00:22:22;;;;;;;6.63;3.17;;;;;;;4.29;100.00;97977.56;5048239;28;20079;-76
2021/05/08 00:24:49;;;;;;;9.85;3.58;;;;;;;4.27;100.00;97968.19;5047193;28;20048;-76
2021/05/08 00:27:15;;;;;;;5.50;3.22;;;;;;;4.21;100.00;97974.59;5051262;28;20056;-76
2021/05/08 00:29:41;;;;;;;6.30;2.90;;;;;;;4.17;100.00;97979.69;5051419;28;20045;-77
2021/05/08 00:32:07;;;;;;;6.80;3.35;;;;;;;4.14;100.00;97974.06;5049556;28;20047;-76
2021/05/08 00:34:33;;;;;;;5.75;2.80;;;;;;;4.03;100.00;97967.06;5050611;28;20048;-76
2021/05/08 00:36:59;;;;;;;7.13;2.63;;;;;;;4.08;100.00;97983.13;5049514;28;20390;-77
2021/05/08 00:39:26;;;;;;;7.32;3.17;;;;;;;3.94;100.00;97977.50;5051121;28;20036;-77
2021/05/08 00:41:52;;;;;;;5.95;3.22;;;;;;;3.90;100.00;97984.44;5049774;28;20436;-76
2021/05/08 00:44:19;;;;;;;5.57;3.13;;;;;;;3.83;100.00;97973.19;5050274;28;20440;-77
2021/05/08 00:46:45;;;;;;;4.70;3.28;;;;;;;3.84;100.00;97979.34;5049458;28;20341;-76
2021/05/08 00:49:11;;;;;;;5.50;3.47;;;;;;;3.81;100.00;97974.50;5049811;28;20377;-78
2021/05/08 00:51:38;;;;;;;6.70;3.40;;;;;;;3.92;100.00;97978.84;5050145;28;20488;-76
2021/05/08 00:54:04;;;;;;;7.82;3.70;;;;;;;3.84;100.00;97977.47;5048929;28;20037;-76
2021/05/08 00:56:30;;;;;;;6.63;3.42;;;;;;;3.91;100.00;97980.69;5052320;28;20389;-75
2021/05/08 00:58:56;;;;;;;5.47;3.15;;;;;;;3.89;100.00;97977.50;5050915;28;20327;-76
2021/05/08 01:01:22;;;;;;;5.93;2.90;;;;;;;3.97;100.00;97973.50;5049961;28;20068;-76
2021/05/08 01:03:49;;;;;;;4.90;3.25;;;;;;;3.94;100.00;97972.16;5050206;28;20691;-76
2021/05/08 01:06:16;;;;;;;7.53;3.28;;;;;;;3.93;100.00;97975.06;5049314;28;20060;-75
2021/05/08 01:08:42;;;;;;;6.07;3.30;;;;;;;3.83;100.00;97977.72;5049345;28;20106;-76
2021/05/08 01:11:11;;;;;;;9.63;3.75;;;;;;;3.67;100.00;97969.63;5048498;28;20047;-76
2021/05/08 01:13:38;;;;;;;6.55;3.40;;;;;;;3.55;100.00;97963.72;5050860;28;20057;-76
2021/05/08 01:16:05;;;;;;;6.07;3.00;;;;;;;3.62;100.00;97971.47;5050081;28;20132;-76
2021/05/08 01:18:32;;;;;;;7.00;3.17;;;;;;;3.58;100.00;97971.22;5049514;28;20045;-77
2021/05/08 01:21:00;;;;;;;6.70;3.30;;;;;;;3.58;100.00;97978.44;5049194;28;20138;-77
2021/05/08 01:23:26;;;;;;;8.07;3.50;;;;;;;3.52;100.00;97977.59;5051004;28;20454;-77
2021/05/08 01:25:52;;;;;;;6.13;3.50;;;;;;;3.51;100.00;97984.00;5049159;28;20052;-77
2021/05/08 01:28:18;;;;;;;6.30;3.40;;;;;;;3.45;100.00;97969.03;5049823;28;20393;-77
2021/05/08 01:30:44;;;;;;;5.88;3.83;;;;;;;3.44;100.00;97983.44;5049620;28;20041;-77
2021/05/08 01:33:11;;;;;;;8.88;4.05;;;;;;;3.47;100.00;97971.44;5050152;28;20041;-77
2021/05/08 01:35:37;;;;;;;8.90;4.03;;;;;;;3.49;100.00;97970.09;5049615;28;20499;-77
2021/05/08 01:38:03;;;;;;;8.18;3.55;;;;;;;3.58;100.00;97979.25;5050119;28;20075;-77
2021/05/08 01:40:33;;;;;;;6.78;3.72;;;;;;;3.59;100.00;97970.13;5049172;28;20045;-76
2021/05/08 01:43:00;;;;;;;7.38;3.78;;;;;;;3.58;100.00;97965.88;5049930;28;20049;-77
2021/05/08 01:45:26;;;;;;;6.90;3.78;;;;;;;3.67;100.00;97980.34;5031480;28;20052;-77
2021/05/08 01:47:56;;;;;;;6.38;3.72;;;;;;;3.52;100.00;97977.59;5048045;28;20048;-78
2021/05/08 01:50:25;;;;;;;7.05;3.90;;;;;;;3.48;100.00;97976.53;5032053;28;20045;-77
2021/05/08 01:52:51;;;;;;;7.15;4.00;;;;;;;3.47;100.00;97972.22;5048140;28;20543;-77
2021/05/08 01:55:21;;;;;;;6.18;4.05;;;;;;;3.44;100.00;97972.75;5049879;28;20557;-77
2021/05/08 01:57:50;;;;;;;9.73;3.92;;;;;;;3.40;100.00;97977.03;5049949;28;20044;-77
2021/05/08 02:00:16;;;;;;;7.45;4.28;;;;;;;3.41;100.00;97981.28;5032688;28;20041;-77
2021/05/08 02:02:42;;;;;;;7.95;4.13;;;;;;;3.41;100.00;97977.81;5050024;28;20067;-78
2021/05/08 02:05:09;;;;;;;8.20;4.03;;;;;;;3.31;100.00;97970.53;5053954;28;20048;-77
2021/05/08 02:07:35;;;;;;;7.10;4.15;;;;;;;3.24;100.00;97958.47;5050454;28;20048;-77
2021/05/08 02:10:04;;;;;;;6.53;4.20;;;;;;;3.46;100.00;97978.63;5049687;28;20098;-78
2021/05/08 02:12:31;;;;;;;8.55;4.43;;;;;;;3.47;100.00;97974.91;5052291;28;20507;-78
2021/05/08 02:14:57;;;;;;;7.10;3.92;;;;;;;3.55;100.00;97977.09;5051249;28;20044;-78
2021/05/08 02:17:24;;;;;;;6.32;4.00;;;;;;;3.60;100.00;97968.28;5055169;28;20299;-78
2021/05/08 02:19:50;;;;;;;7.65;4.38;;;;;;;3.54;100.00;97972.78;5054965;28;20053;-78
2021/05/08 02:22:19;;;;;;;9.18;4.10;;;;;;;3.55;100.00;97973.59;5053894;28;20459;-78
2021/05/08 02:24:46;;;;;;;7.35;4.57;;;;;;;3.42;100.00;97969.53;5052986;28;20033;-78
2021/05/08 02:27:12;;;;;;;7.32;4.35;;;;;;;3.33;100.00;97973.75;5032204;28;20887;-77
2021/05/08 02:29:38;;;;;;;9.60;4.47;;;;;;;3.21;100.00;97975.03;5048104;28;20086;-77
2021/05/08 02:32:06;;;;;;;7.43;4.65;;;;;;;3.09;100.00;97965.34;5047870;28;20672;-78
2021/05/08 02:34:32;;;;;;;9.23;4.78;;;;;;;3.09;100.00;97960.00;5048663;28;20053;-77
2021/05/08 02:36:58;;;;;;;8.48;4.85;;;;;;;3.25;100.00;97968.94;5049316;28;20041;-77
2021/05/08 02:39:25;;;;;;;6.10;4.05;;;;;;;3.33;100.00;97968.41;5049547;28;20041;-76
2021/05/08 02:41:51;;;;;;;7.72;4.78;;;;;;;3.25;100.00;97963.56;5050225;28;20120;-76
2021/05/08 02:44:17;;;;;;;7.18;4.38;;;;;;;3.28;100.00;97960.34;5048005;28;20053;-78
2021/05/08 02:46:44;;;;;;;8.57;4.35;;;;;;;3.31;100.00;97965.19;5049015;28;20107;-77
2021/05/08 02:49:10;;;;;;;10.52;5.10;;;;;;;3.28;100.00;97976.41;5049451;28;20097;-76
2021/05/08 02:51:36;;;;;;;7.38;4.80;;;;;;;3.28;100.00;97976.41;5047434;28;20048;-77
2021/05/08 02:54:02;;;;;;;9.40;5.03;;;;;;;3.32;100.00;97961.47;5048655;28;20049;-76
2021/05/08 02:56:28;;;;;;;10.35;4.88;;;;;;;3.28;100.00;97973.72;5048921;28;20036;-76
2021/05/08 02:58:54;;;;;;;8.50;5.35;;;;;;;3.28;100.00;97968.38;5047794;28;20060;-77
2021/05/08 03:01:20;;;;;;;12.90;5.00;;;;;;;3.19;100.00;97985.19;5048383;28;20048;-77
2021/05/08 03:03:47;;;;;;;8.00;4.88;;;;;;;3.10;100.00;97969.63;5048420;28;20045;-77
2021/05/08 03:06:13;;;;;;;8.48;5.10;;;;;;;3.08;100.00;97970.94;5049474;28;20056;-76
2021/05/08 03:08:39;;;;;;;8.32;5.00;;;;;;;2.94;100.00;97967.91;5049502;28;20049;-77
2021/05/08 03:11:05;;;;;;;10.45;5.30;;;;;;;3.05;100.00;97966.91;5050230;28;20037;-77
2021/05/08 03:13:31;;;;;;;9.77;5.50;;;;;;;2.97;100.00;97987.97;5051184;28;20060;-77
2021/05/08 03:15:57;;;;;;;9.65;5.30;;;;;;;2.90;100.00;97980.19;5049448;28;20049;-77
2021/05/08 03:18:23;;;;;;;8.25;5.35;;;;;;;2.95;100.00;97966.84;5048748;28;20044;-77
2021/05/08 03:20:50;;;;;;;9.55;5.47;;;;;;;3.08;100.00;97979.78;5049562;28;20041;-77
2021/05/08 03:23:16;;;;;;;6.82;5.10;;;;;;;3.12;100.00;97988.09;5048029;28;20049;-77
2021/05/08 03:25:42;;;;;;;10.23;5.60;;;;;;;3.05;100.00;97974.13;5050012;28;20518;-77
2021/05/08 03:28:08;;;;;;;9.80;5.57;;;;;;;3.02;100.00;97980.81;5048362;28;20041;-77
2021/05/08 03:30:34;;;;;;;10.40;5.55;;;;;;;2.97;100.00;97978.09;5049805;28;20406;-77
2021/05/08 03:33:00;;;;;;;12.65;5.38;;;;;;;2.94;100.00;97988.53;5047795;28;20033;-77
2021/05/08 03:35:27;;;;;;;11.15;5.32;;;;;;;2.91;100.00;97986.34;5048394;28;20041;-77
2021/05/08 03:37:53;;;;;;;8.23;5.53;;;;;;;2.94;100.00;97970.59;5049224;28;20052;-77
2021/05/08 03:40:22;;;;;;;10.18;5.75;;;;;;;2.89;100.00;97972.44;5050834;28;20041;-78
2021/05/08 03:42:48;;;;;;;12.05;5.85;;;;;;;2.79;100.00;97967.81;5048907;28;20049;-76
2021/05/08 03:45:14;;;;;;;10.10;5.93;;;;;;;2.79;100.00;97983.84;5048696;28;20052;-77
2021/05/08 03:47:40;;;;;;;8.25;5.35;;;;;;;2.77;100.00;97985.16;5049519;28;20083;-76
2021/05/08 03:50:07;;;;;;;12.00;6.20;;;;;;;2.70;100.00;97977.38;5056873;28;20045;-78
2021/05/08 03:52:33;;;;;;;12.43;6.72;;;;;;;2.71;100.00;97981.66;5055520;28;20111;-76
2021/05/08 03:55:00;;;;;;;11.90;6.30;;;;;;;2.87;100.00;97987.91;5049533;28;20041;-77
2021/05/08 03:57:26;;;;;;;10.98;6.80;;;;;;;2.93;100.00;97993.06;5049102;28;20044;-77
2021/05/08 03:59:53;;;;;;;12.18;6.97;;;;;;;2.89;100.00;97991.94;5050009;28;20051;-78
2021/05/08 04:02:19;;;;;;;12.15;7.35;;;;;;;2.90;100.00;97992.75;5044883;28;20046;-77
2021/05/08 04:04:46;;;;;;;14.57;7.53;;;;;;;3.00;100.00;98000.84;5043908;28;20072;-77
2021/05/08 04:07:12;;;;;;;12.55;7.53;;;;;;;3.03;100.00;97986.97;5045724;28;20053;-76
2021/05/08 04:09:38;;;;;;;12.15;6.80;;;;;;;2.95;100.00;97993.59;5048301;28;20044;-77
2021/05/08 04:12:04;;;;;;;13.13;7.53;;;;;;;2.90;100.00;97988.22;5050791;28;20114;-77
2021/05/08 04:14:30;;;;;;;11.57;6.20;;;;;;;2.89;100.00;98001.84;5034594;28;20037;-77
2021/05/08 04:16:56;;;;;;;10.05;6.50;;;;;;;2.82;100.00;97988.69;5035016;28;20083;-78
2021/05/08 04:19:23;;;;;;;12.63;6.93;;;;;;;2.95;100.00;97992.78;5055253;28;20400;-77
2021/05/08 04:21:49;;;;;;;11.93;7.70;;;;;;;2.97;100.00;98002.16;5051876;28;20500;-77
2021/05/08 04:24:15;;;;;;;12.25;7.10;;;;;;;2.99;100.00;97999.25;5053647;28;20100;-77
2021/05/08 04:26:41;;;;;;;11.55;7.40;;;;;;;2.98;100.00;98003.78;5051901;28;20045;-78
2021/05/08 04:29:07;;;;;;;13.40;7.93;;;;;;;3.00;100.00;98015.03;5050388;28;20048;-79
2021/05/08 04:31:35;;;;;;;11.70;7.72;;;;;;;3.05;100.00;98001.69;5051717;28;20127;-78
2021/05/08 04:34:01;;;;;;;11.98;6.90;;;;;;;3.05;100.00;97998.19;5053329;28;20037;-76
2021/05/08 04:36:27;;;;;;;12.85;8.02;;;;;;;3.07;100.00;98006.78;5054776;28;20044;-78
2021/05/08 04:38:53;;;;;;;11.77;7.68;;;;;;;3.19;100.00;98002.06;5055622;28;20500;-76
2021/05/08 04:41:19;;;;;;;12.45;7.78;;;;;;;3.25;100.00;98002.91;5066642;22;20045;-76
2021/05/08 04:43:45;;;;;;;11.60;7.80;;;;;;;3.32;100.00;98000.78;5043691;28;20041;-75
2021/05/08 04:46:15;;;;;;;10.40;7.30;;;;;;;3.41;100.00;98005.38;5060893;28;20048;-76
2021/05/08 04:48:42;;;;;;;12.93;7.15;;;;;;;3.52;100.00;98000.88;5059525;28;20033;-77
2021/05/08 04:51:08;;;;;;;12.27;6.88;;;;;;;3.62;100.00;97995.56;5042335;28;20059;-77
2021/05/08 04:53:34;;;;;;;10.18;6.93;;;;;;;3.73;100.00;98002.59;5061401;28;20055;-78
2021/05/08 04:56:00;;;;;;;11.50;6.93;;;;;;;3.96;100.00;98001.34;5025110;28;20041;-77
2021/05/08 04:58:26;;;;;;;16.10;6.97;;;;;;;4.19;100.00;98003.53;5024529;28;20455;-77
2021/05/08 05:00:52;;;;;;;12.57;6.63;;;;;;;4.32;100.00;97998.47;5042798;28;20118;-76
2021/05/08 05:03:18;;;;;;;12.07;6.78;;;;;;;4.39;100.00;97999.03;5060159;28;20071;-77
2021/05/08 05:05:45;;;;;;;10.32;6.72;;;;;;;4.43;100.00;97993.94;5026456;28;20490;-77
2021/05/08 05:08:17;;;;;;;12.00;6.70;;;;;;;4.55;100.00;98007.06;5024713;28;20135;-78
2021/05/08 05:10:48;;;;;;;10.80;6.93;;;;;;;4.80;100.00;98007.13;5066258;28;20493;-79
2021/05/08 05:13:14;;;;;;;9.38;6.65;;;;;;;4.89;100.00;98003.63;5076860;28;20128;-78
2021/05/08 05:15:40;;;;;;;14.32;6.70;;;;;;;5.03;100.00;98004.66;5054456;28;20041;-77
2021/05/08 05:18:06;;;;;;;11.93;6.20;;;;;;;5.15;100.00;98022.38;5048107;28;20048;-79
2021/05/08 05:20:35;;;;;;;9.35;5.70;;;;;;;5.32;100.00;98004.88;5029929;28;20062;-79
2021/05/08 05:23:01;;;;;;;9.70;5.82;;;;;;;5.45;100.00;98015.06;5028948;28;20086;-79
2021/05/08 05:25:28;;;;;;;11.95;5.88;;;;;;;5.57;100.00;98012.09;5031493;28;20457;-79
2021/05/08 05:27:54;;;;;;;9.40;5.50;;;;;;;5.71;100.00;98012.28;5056608;28;20052;-79
2021/05/08 05:30:21;;;;;;;10.55;5.65;;;;;;;5.81;100.00;98012.28;5040071;28;20059;-78
2021/05/08 05:32:47;;;;;;;9.77;6.07;;;;;;;5.88;100.00;98024.38;5058136;28;20055;-80
2021/05/08 05:35:13;;;;;;;8.40;5.32;;;;;;;5.97;100.00;98019.22;5057533;28;20067;-78
2021/05/08 05:37:39;;;;;;;8.48;5.45;;;;;;;6.14;100.00;98019.69;5058627;28;20051;-78
2021/05/08 05:40:06;;;;;;;7.03;5.10;;;;;;;6.31;100.00;98030.88;5056736;28;20052;-79
2021/05/08 05:42:35;;;;;;;9.88;5.38;;;;;;;6.53;100.00;98027.78;5056896;28;20048;-78
2021/05/08 05:45:02;;;;;;;8.68;6.18;;;;;;;6.65;100.00;98039.00;5056267;28;20362;-77
2021/05/08 05:47:31;;;;;;;8.32;5.30;;;;;;;6.71;100.00;98035.22;5055279;28;20049;-79
2021/05/08 05:50:03;;;;;;;9.18;5.50;;;;;;;6.77;100.00;98034.88;5057808;28;20089;-79
2021/05/08 05:52:29;;;;;;;8.68;5.47;;;;;;;6.79;100.00;98040.78;5057065;28;20504;-78
2021/05/08 05:54:55;;;;;;;10.40;5.63;;;;;;;6.92;100.00;98035.84;5055618;28;20051;-79
2021/05/08 05:57:21;;;;;;;9.30;6.13;;;;;;;6.94;100.00;98036.38;5055027;28;20052;-79
2021/05/08 05:59:52;;;;;;;10.13;5.80;;;;;;;7.08;100.00;98038.13;5059682;28;20371;-80
2021/05/08 06:02:18;;;;;;;11.25;6.15;;;;;;;7.31;100.00;98036.56;5043340;28;20044;-79
2021/05/08 06:04:44;;;;;;;11.57;5.88;;;;;;;7.44;100.00;98039.41;5063775;28;20408;-79
2021/05/08 06:07:12;;;;;;;10.60;5.63;;;;;;;7.39;100.00;98041.34;5073322;28;20045;-79
2021/05/08 06:09:38;;;;;;;10.60;5.43;;;;;;;7.45;100.00;98049.13;5054664;28;20057;-79
2021/05/08 06:12:04;;;;;;;8.25;5.70;;;;;;;7.34;100.00;98039.50;5055468;28;20455;-80
2021/05/08 06:14:33;;;;;;;8.88;5.20;;;;;;;7.51;100.00;98055.22;5074574;28;20032;-79
2021/05/08 06:16:59;;;;;;;8.57;5.57;;;;;;;7.40;100.00;98051.84;5074440;28;20052;-79
2021/05/08 06:19:30;;;;;;;9.38;5.20;;;;;;;7.36;100.00;98064.25;5037753;28;20059;-79
2021/05/08 06:21:56;;;;;;;11.02;5.10;;;;;;;7.13;100.00;98056.94;5043288;28;20098;-80
2021/05/08 06:24:25;;;;;;;11.60;5.70;;;;;;;6.99;100.00;98050.59;5040842;28;20070;-79
2021/05/08 06:26:51;;;;;;;8.05;5.22;;;;;;;7.07;100.00;98049.19;5052307;28;20091;-80
2021/05/08 06:29:19;;;;;;;8.30;5.18;;;;;;;7.22;100.00;98055.25;5054910;28;20045;-80
2021/05/08 06:31:45;;;;;;;13.32;6.05;;;;;;;7.41;100.00;98058.84;5054497;28;20049;-78
2021/05/08 06:34:21;;;;;;;8.13;4.78;;;;;;;7.44;100.00;98055.56;5019102;28;20071;-79
2021/05/08 06:36:47;;;;;;;7.10;4.80;;;;;;;7.53;100.00;98047.69;5059724;28;20040;-79
2021/05/08 06:39:13;;;;;;;7.85;5.00;;;;;;;7.69;100.00;98049.13;5064358;28;20040;-79
2021/05/08 06:41:39;;;;;;;8.63;5.15;;;;;;;7.70;100.00;98044.53;5046222;28;20047;-79
2021/05/08 06:44:06;;;;;;;6.75;4.95;;;;;;;7.66;100.00;98041.63;5058545;28;20051;-78
2021/05/08 06:46:32;;;;;;;10.40;5.28;;;;;;;7.87;100.00;98053.75;5044973;28;20048;-79
2021/05/08 06:48:59;;;;;;;9.93;5.07;;;;;;;7.90;100.00;98057.78;5077518;28;20593;-77
2021/05/08 06:51:29;;;;;;;7.43;5.00;;;;;;;7.96;100.00;98048.56;5074110;28;20048;-82
2021/05/08 06:53:56;;;;;;;9.85;4.95;;;;;;;8.11;100.00;98054.56;5074699;28;20036;-82
2021/05/08 06:56:23;;;;;;;8.02;4.85;;;;;;;8.22;100.00;98062.53;5075312;28;20040;-78
2021/05/08 06:58:50;;;;;;;7.57;4.57;;;;;;;8.34;100.00;98057.53;5052883;28;20079;-79
2021/05/08 07:01:17;;;;;;;8.30;4.53;;;;;;;8.43;100.00;98059.31;5052890;28;20045;-77
2021/05/08 07:03:43;;;;;;;8.60;4.78;;;;;;;8.42;100.00;98059.59;5055232;28;20119;-79
2021/05/08 07:06:09;;;;;;;7.68;4.57;;;;;;;8.48;100.00;98063.84;5054186;28;20044;-77
2021/05/08 07:08:35;;;;;;;12.20;4.85;;;;;;;8.66;100.00;98054.94;5053571;28;20127;-79
2021/05/08 07:11:02;;;;;;;7.47;5.00;;;;;;;8.63;100.00;98061.75;5073209;28;20055;-78
2021/05/08 07:13:28;;;;;;;8.77;4.90;;;;;;;8.72;100.00;98053.78;5066595;28;20033;-76
2021/05/08 07:15:54;;;;;;;9.13;5.18;;;;;;;8.81;100.00;98067.41;5026588;28;20650;-77
2021/05/08 07:18:21;;;;;;;9.52;5.18;;;;;;;8.85;100.00;98063.06;5042081;28;20523;-78
2021/05/08 07:20:47;;;;;;;8.40;4.90;;;;;;;8.90;100.00;98052.97;5039177;28;20060;-77
2021/05/08 07:23:14;;;;;;;7.18;4.80;;;;;;;9.01;100.00;98054.41;5037004;28;20056;-79
2021/05/08 07:25:40;;;;;;;7.57;4.75;;;;;;;9.08;100.00;98044.06;5016069;28;20553;-79
2021/05/08 07:28:13;;;;;;;7.78;4.57;;;;;;;9.07;100.00;98049.72;5035459;28;20045;-76
2021/05/08 07:30:48;;;;;;;8.30;4.88;;;;;;;9.25;100.00;98052.41;5055597;28;20097;-81
2021/05/08 07:33:16;;;;;;;6.95;4.93;;;;;;;9.33;100.00;98053.63;5042178;28;20727;-80
2021/05/08 07:35:43;;;;;;;10.30;4.78;;;;;;;9.27;100.00;98041.28;5047554;28;20072;-80
2021/05/08 07:38:10;;;;;;;7.97;4.78;;;;;;;9.31;100.00;98053.94;5033729;28;20063;-80
2021/05/08 07:40:39;;;;;;;10.77;4.82;;;;;;;9.45;100.00;98062.06;5047133;28;20049;-77
2021/05/08 07:43:06;;;;;;;8.43;5.18;;;;;;;9.50;100.00;98050.38;5069056;28;20045;-78
2021/05/08 07:45:33;;;;;;;7.60;4.30;;;;;;;9.56;100.00;98047.28;5043536;28;20575;-77
2021/05/08 07:48:00;;;;;;;8.45;4.57;;;;;;;9.71;100.00;98052.38;5073141;28;20104;-77
2021/05/08 07:50:28;;;;;;;10.05;5.38;;;;;;;10.05;100.00;98054.72;5067479;28;20041;-76
2021/05/08 07:52:55;;;;;;;8.27;4.90;;;;;;;10.23;97.13;98051.13;5043071;28;20107;-76
2021/05/08 07:55:22;;;;;;;7.75;4.10;;;;;;;10.37;100.00;98056.53;5041919;28;20041;-77
2021/05/08 07:57:49;;;;;;;7.90;4.70;;;;;;;10.23;98.58;98047.63;5045125;28;20049;-78
2021/05/08 08:00:17;;;;;;;5.82;4.30;;;;;;;9.98;94.30;98057.84;5083052;28;20515;-79
2021/05/08 08:02:43;;;;;;;8.38;4.20;;;;;;;9.91;100.00;98053.94;5083096;28;20171;-77
2021/05/08 08:05:10;;;;;;;8.27;4.80;;;;;;;10.05;90.38;98049.31;5055373;28;20040;-75
2021/05/08 08:07:36;;;;;;;10.57;3.88;;;;;;;10.20;100.00;98057.16;5072270;28;20048;-74
2021/05/08 08:10:04;;;;;;;8.82;4.20;;;;;;;10.18;88.62;98053.13;5070515;28;20045;-74
2021/05/08 08:12:32;;;;;;;10.57;4.47;;;;;;;10.09;92.62;98049.50;5053397;28;20420;-73
2021/05/08 08:14:58;;;;;;;8.70;4.55;;;;;;;10.35;89.07;98058.75;5036650;28;20474;-73
2021/05/08 08:17:24;;;;;;;7.68;4.32;;;;;;;10.33;82.75;98050.91;5069985;28;20044;-73
2021/05/08 08:19:51;;;;;;;8.30;3.80;;;;;;;10.39;81.74;98046.19;5070934;28;20051;-73
2021/05/08 08:22:17;;;;;;;9.32;4.90;;;;;;;10.57;76.78;98045.25;5056779;28;20037;-79
2021/05/08 08:24:44;;;;;;;8.60;4.53;;;;;;;10.63;77.71;98057.59;5061333;28;20511;-77
2021/05/08 08:27:11;;;;;;;7.78;4.53;;;;;;;10.60;75.00;98060.91;5061654;28;20045;-77
2021/05/08 08:29:38;;;;;;;9.98;4.97;;;;;;;10.76;77.24;98056.75;5059234;28;20041;-77
2021/05/08 08:32:07;;;;;;;6.15;4.03;;;;;;;10.45;69.07;98053.91;5059345;28;20479;-75
2021/05/08 08:34:34;;;;;;;7.47;4.38;;;;;;;10.72;74.14;98065.78;5067462;28;20100;-77
2021/05/08 08:37:02;;;;;;;6.55;4.60;;;;;;;10.86;73.77;98058.44;5057895;28;20040;-71
2021/05/08 08:39:30;;;;;;;8.15;5.28;;;;;;;11.01;66.19;98056.16;5075844;28;20273;-74
2021/05/08 08:41:57;;;;;;;8.48;6.10;;;;;;;11.12;62.87;98046.66;5053116;28;20091;-72
2021/05/08 08:44:24;;;;;;;8.82;4.28;;;;;;;11.17;76.62;98057.38;5052400;28;20044;-76
2021/05/08 08:46:51;;;;;;;11.35;6.90;;;;;;;11.43;65.63;98054.06;5052774;28;20423;-72
2021/05/08 08:49:17;;;;;;;9.73;6.15;;;;;;;11.34;53.69;98055.91;5052334;28;20462;-71
2021/05/08 08:51:44;;;;;;;11.25;6.15;;;;;;;11.37;53.55;98055.28;5052259;28;20044;-73
2021/05/08 08:54:12;;;;;;;9.48;5.57;;;;;;;11.66;59.05;98052.91;5047869;28;20049;-78
2021/05/08 08:56:40;;;;;;;11.23;5.80;;;;;;;11.92;61.74;98050.34;5038488;28;20041;-78
2021/05/08 09:01:49;;;;;;;13.35;6.60;;;;;;;11.66;52.44;98044.78;5056988;28;20053;-79
2021/05/08 09:04:16;;;;;;;10.70;6.57;;;;;;;11.67;56.90;98060.72;5039076;28;20048;-81
2021/05/08 09:06:45;;;;;;;8.60;5.65;;;;;;;11.58;53.68;98051.75;5057932;28;20059;-81
2021/05/08 09:09:12;;;;;;;9.00;5.30;;;;;;;12.02;52.42;98053.59;5062993;28;20380;-80
2021/05/08 09:12:11;;;;;;;9.65;6.07;;;;;;;11.39;55.42;98055.78;5060003;28;20037;-79
2021/05/08 09:14:39;;;;;;;12.05;6.82;;;;;;;11.16;53.77;98057.69;5049616;28;20041;-78
2021/05/08 09:17:14;;;;;;;8.32;6.25;;;;;;;11.02;55.45;98055.03;5052672;28;20040;-79
2021/05/08 09:19:43;;;;;;;11.68;5.68;;;;;;;11.35;51.98;98044.78;5021840;28;20076;-81
2021/05/08 09:22:30;;;;;;;9.20;6.18;;;;;;;11.89;52.04;98059.91;5055366;28;20465;-80
2021/05/08 09:25:07;;;;;;;8.30;5.90;;;;;;;11.49;49.25;98050.91;5036206;28;20088;-81
2021/05/08 09:27:41;;;;;;;7.60;5.05;;;;;;;12.07;49.86;98048.03;5057269;28;20053;-83
2021/05/08 09:30:20;;;;;;;9.27;5.40;;;;;;;11.63;46.27;98048.91;5059550;28;20419;-80
2021/05/08 09:32:55;;;;;;;8.65;5.10;;;;;;;11.35;48.41;98047.47;5058954;28;20037;-80
2021/05/08 09:35:30;;;;;;;9.13;5.63;;;;;;;11.42;47.91;98053.25;5040985;28;20247;-79
2021/05/08 09:38:30;;;;;;;7.78;5.03;;;;;;;12.24;46.10;98044.53;5025540;28;20059;-80
2021/05/08 09:40:56;;;;;;;8.50;4.55;;;;;;;12.96;46.94;98052.94;5044013;28;20471;-78
2021/05/08 09:43:22;;;;;;;8.88;5.28;;;;;;;13.88;44.88;98052.38;5058068;28;20128;-79
2021/05/08 09:45:52;;;;;;;7.80;5.00;;;;;;;15.28;44.88;98048.09;5023990;28;20037;-82
2021/05/08 09:48:32;;;;;;;6.80;4.30;;;;;;;14.74;44.30;98032.84;5060662;28;20075;-80
2021/05/08 09:51:26;;;;;;;8.63;4.22;;;;;;;14.53;45.55;98042.94;5061167;28;20072;-78
2021/05/08 09:53:54;;;;;;;8.23;5.00;;;;;;;13.40;45.46;98040.94;5062478;28;20045;-77
2021/05/08 09:56:43;;;;;;;6.40;4.20;;;;;;;13.17;45.34;98039.53;5039939;28;20037;-78
2021/05/08 09:59:38;;;;;;;6.15;3.70;;;;;;;13.02;46.34;98043.53;5042907;28;20045;-78
2021/05/08 10:02:05;;;;;;;6.15;3.80;;;;;;;13.52;44.83;98038.38;5052352;28;20049;-79
2021/05/08 10:04:46;;;;;;;6.80;3.72;;;;;;;15.57;42.56;98022.66;5051942;28;20033;-79
2021/05/08 10:07:22;;;;;;;4.60;3.30;;;;;;;16.81;38.59;98017.34;5052852;28;20315;-80
2021/05/08 10:09:53;;;;;;;5.28;3.22;;;;;;;17.73;36.07;98014.44;5051087;28;20111;-80
2021/05/08 10:12:24;;;;;;;6.50;3.00;;;;;;;16.68;37.16;98012.22;5052083;28;20095;-79
2021/05/08 10:14:53;;;;;;;3.70;2.50;;;;;;;16.31;40.24;98000.50;5053886;28;20465;-83
2021/05/08 10:17:21;;;;;;;4.47;3.03;;;;;;;14.37;41.86;97999.13;5056359;28;20060;-80
2021/05/08 10:19:50;;;;;;;7.00;3.00;;;;;;;14.63;44.25;98012.56;5018872;28;20068;-84
2021/05/08 10:22:18;;;;;;;5.20;3.13;;;;;;;15.74;40.59;98002.56;5052528;28;20123;-81
2021/05/08 10:24:47;;;;;;;4.30;2.90;;;;;;;16.47;41.81;98000.63;5034651;28;20067;-82
2021/05/08 10:27:14;;;;;;;5.05;2.83;;;;;;;16.78;37.79;98001.59;5034174;28;20419;-86
2021/05/08 10:29:49;;;;;;;4.50;3.15;;;;;;;17.64;35.67;97991.91;5017809;28;20052;-87
2021/05/08 10:32:19;;;;;;;7.57;4.28;;;;;;;18.17;37.08;97992.44;5052611;28;20542;-81
2021/05/08 10:35:02;;;;;;;5.78;3.72;;;;;;;17.21;36.47;98000.09;5054105;28;20041;-81
2021/05/08 10:37:29;;;;;;;7.30;3.33;;;;;;;15.82;37.96;97985.28;5013728;28;20117;-80
2021/05/08 10:40:14;;;;;;;6.40;4.57;;;;;;;14.48;43.33;97980.47;5049758;28;20519;-79
2021/05/08 10:42:49;;;;;;;5.20;3.35;;;;;;;16.76;39.18;97989.44;5049382;28;20122;-80
2021/05/08 10:45:18;;;;;;;5.27;3.40;;;;;;;17.43;36.25;97980.38;5050517;28;20053;-80
2021/05/08 10:47:54;;;;;;;5.22;3.08;;;;;;;18.26;37.78;97973.84;5013846;28;20484;-81
2021/05/08 10:50:23;;;;;;;4.80;3.10;;;;;;;19.59;34.16;97967.63;5030619;28;20773;-81
2021/05/08 10:53:04;;;;;;;3.67;2.63;;;;;;;19.24;35.12;97966.97;5031596;28;20407;-82
2021/05/08 10:55:53;;;;;;;4.90;3.28;;;;;;;18.46;34.70;97970.81;5047945;28;20052;-82
2021/05/08 10:58:22;;;;;;;5.80;3.08;;;;;;;18.95;35.38;97975.78;5026590;28;20056;-80
2021/05/08 11:00:48;;;;;;;4.93;3.30;;;;;;;18.08;34.37;97970.69;5013158;28;20099;-81
2021/05/08 11:03:16;;;;;;;3.60;3.05;;;;;;;16.90;39.60;97980.84;5014429;28;20045;-80
2021/05/08 11:06:03;;;;;;;3.88;2.85;;;;;;;15.71;39.32;97965.81;5031531;28;20441;-80
2021/05/08 11:08:30;;;;;;;6.28;3.30;;;;;;;15.39;39.73;97958.47;5016659;28;20079;-82
2021/05/08 11:11:03;;;;;;;4.90;3.00;;;;;;;16.41;36.94;97963.75;5048757;28;20072;-80
2021/05/08 11:13:44;;;;;;;5.38;3.70;;;;;;;17.60;35.17;97949.94;5049444;28;20048;-80
2021/05/08 11:16:18;;;;;;;4.88;2.70;;;;;;;17.93;34.37;97944.13;5048613;28;20049;-81
2021/05/08 11:18:49;;;;;;;4.35;2.80;;;;;;;16.50;37.06;97965.19;5030939;28;20128;-81
2021/05/08 11:21:18;;;;;;;11.60;3.60;;;;;;;14.57;38.47;97951.22;5035133;28;20068;-82
2021/05/08 11:23:57;;;;;;;5.35;2.95;;;;;;;-141.50;100.00;63355.56;5053192;28;20659;-80
2021/05/08 11:29:02;;;;;;;6.22;2.67;;;;;;;16.91;35.55;97944.94;5053318;28;20056;-79
2021/05/08 11:31:46;;;;;;;2.53;1.63;;;;;;;15.52;34.61;97928.16;5054078;28;20684;-83
2021/05/08 11:34:20;;;;;;;5.28;2.38;;;;;;;15.27;38.39;97936.63;5036332;28;20047;-81
2021/05/08 11:37:02;;;;;;;7.15;3.20;;;;;;;18.11;33.52;97939.84;5054075;28;20458;-81
2021/05/08 11:39:35;;;;;;;5.28;2.92;;;;;;;20.11;30.86;97933.97;5024401;28;20084;-82
2021/05/08 11:42:25;;;;;;;3.85;2.58;;;;;;;18.25;33.06;97931.94;5070415;28;20017;-81